sensor_id;sensor_type;location;lat;lon;timestamp;pressure;altitude;pressure_sealevel;temperature;humidity
23427;BME280;41148;45.420;10.952;2023-03-19T00:00:33;101063.13;;;9.42;73.32
23427;BME280;41148;45.420;10.952;2023-03-19T00:03:00;101055.09;;;9.45;72.55
23427;BME280;41148;45.420;10.952;2023-03-19T00:05:28;101052.69;;;9.32;73.46
23427;BME280;41148;45.420;10.952;2023-03-19T00:07:55;101061.53;;;9.32;73.72
23427;BME280;41148;45.420;10.952;2023-03-19T00:10:23;101061.38;;;9.41;73.26
23427;BME280;41148;45.420;10.952;2023-03-19T00:12:50;101055.03;;;9.50;72.77
23427;BME280;41148;45.420;10.952;2023-03-19T00:15:18;101049.94;;;9.38;73.17
23427;BME280;41148;45.420;10.952;2023-03-19T00:17:45;101063.25;;;9.35;73.33
23427;BME280;41148;45.420;10.952;2023-03-19T00:20:13;101042.06;;;9.30;73.78
23427;BME280;41148;45.420;10.952;2023-03-19T00:22:41;101027.13;;;9.23;73.81
23427;BME280;41148;45.420;10.952;2023-03-19T00:25:09;101048.88;;;9.46;73.36
23427;BME280;41148;45.420;10.952;2023-03-19T00:27:36;101049.56;;;9.58;72.56
23427;BME280;41148;45.420;10.952;2023-03-19T00:30:05;101060.06;;;9.64;72.43
23427;BME280;41148;45.420;10.952;2023-03-19T00:32:34;101046.06;;;9.56;72.60
23427;BME280;41148;45.420;10.952;2023-03-19T00:35:03;101059.41;;;9.53;72.99
23427;BME280;41148;45.420;10.952;2023-03-19T00:37:33;101053.09;;;9.58;72.73
23427;BME280;41148;45.420;10.952;2023-03-19T00:40:01;101049.19;;;9.30;73.73
23427;BME280;41148;45.420;10.952;2023-03-19T00:42:30;101056.47;;;9.17;74.69
23427;BME280;41148;45.420;10.952;2023-03-19T00:44:58;101060.75;;;9.26;75.04
23427;BME280;41148;45.420;10.952;2023-03-19T00:47:25;101053.81;;;9.15;74.93
23427;BME280;41148;45.420;10.952;2023-03-19T00:49:53;101046.66;;;9.21;74.43
23427;BME280;41148;45.420;10.952;2023-03-19T00:52:22;101063.56;;;9.18;74.04
23427;BME280;41148;45.420;10.952;2023-03-19T00:54:49;101059.25;;;9.09;74.50
23427;BME280;41148;45.420;10.952;2023-03-19T00:57:18;101040.81;;;9.00;74.14
23427;BME280;41148;45.420;10.952;2023-03-19T00:59:45;101052.38;;;8.95;74.31
23427;BME280;41148;45.420;10.952;2023-03-19T01:02:13;101054.84;;;9.07;74.34
23427;BME280;41148;45.420;10.952;2023-03-19T01:04:40;101041.63;;;9.04;74.03
23427;BME280;41148;45.420;10.952;2023-03-19T01:07:09;101038.34;;;8.88;74.84
23427;BME280;41148;45.420;10.952;2023-03-19T01:09:36;101030.59;;;8.73;75.25
23427;BME280;41148;45.420;10.952;2023-03-19T01:12:04;101037.72;;;8.71;75.11
23427;BME280;41148;45.420;10.952;2023-03-19T01:14:32;101014.88;;;8.59;75.79
23427;BME280;41148;45.420;10.952;2023-03-19T01:16:59;101013.13;;;8.56;76.33
23427;BME280;41148;45.420;10.952;2023-03-19T01:19:28;101022.59;;;8.74;76.11
23427;BME280;41148;45.420;10.952;2023-03-19T01:21:56;101029.59;;;8.80;75.89
23427;BME280;41148;45.420;10.952;2023-03-19T01:24:28;101023.34;;;8.82;75.38
23427;BME280;41148;45.420;10.952;2023-03-19T01:26:56;101028.69;;;8.81;76.03
23427;BME280;41148;45.420;10.952;2023-03-19T01:29:34;101023.13;;;8.96;74.74
23427;BME280;41148;45.420;10.952;2023-03-19T01:32:10;101017.22;;;8.79;75.25
23427;BME280;41148;45.420;10.952;2023-03-19T01:34:56;101015.38;;;8.82;74.38
23427;BME280;41148;45.420;10.952;2023-03-19T01:37:23;101017.81;;;8.98;73.68
23427;BME280;41148;45.420;10.952;2023-03-19T01:39:51;100998.22;;;9.03;73.23
23427;BME280;41148;45.420;10.952;2023-03-19T01:42:19;101007.00;;;9.07;73.62
23427;BME280;41148;45.420;10.952;2023-03-19T01:45:31;101006.38;;;8.93;74.09
23427;BME280;41148;45.420;10.952;2023-03-19T01:48:35;100989.81;;;8.75;74.63
23427;BME280;41148;45.420;10.952;2023-03-19T01:51:10;100993.38;;;8.74;74.57
23427;BME280;41148;45.420;10.952;2023-03-19T01:54:13;100990.00;;;8.63;74.84
23427;BME280;41148;45.420;10.952;2023-03-19T01:57:01;101009.22;;;8.80;74.23
23427;BME280;41148;45.420;10.952;2023-03-19T02:00:05;101010.13;;;8.79;73.98
23427;BME280;41148;45.420;10.952;2023-03-19T02:02:43;100995.19;;;8.72;73.67
23427;BME280;41148;45.420;10.952;2023-03-19T02:05:19;100987.22;;;8.72;73.73
23427;BME280;41148;45.420;10.952;2023-03-19T02:07:58;100990.59;;;8.82;73.50
23427;BME280;41148;45.420;10.952;2023-03-19T02:10:28;100980.09;;;8.74;73.82
23427;BME280;41148;45.420;10.952;2023-03-19T02:12:57;100986.13;;;8.84;72.95
23427;BME280;41148;45.420;10.952;2023-03-19T02:15:24;100994.13;;;8.82;72.62
23427;BME280;41148;45.420;10.952;2023-03-19T02:17:52;100991.41;;;8.85;72.50
23427;BME280;41148;45.420;10.952;2023-03-19T02:20:28;100998.41;;;8.93;72.29
23427;BME280;41148;45.420;10.952;2023-03-19T02:26:06;100989.53;;;8.94;72.88
23427;BME280;41148;45.420;10.952;2023-03-19T02:28:37;100996.03;;;8.74;74.14
23427;BME280;41148;45.420;10.952;2023-03-19T02:31:07;101002.34;;;8.69;75.07
23427;BME280;41148;45.420;10.952;2023-03-19T02:33:35;100992.66;;;8.63;75.83
23427;BME280;41148;45.420;10.952;2023-03-19T02:36:05;101004.19;;;8.62;76.23
23427;BME280;41148;45.420;10.952;2023-03-19T02:38:35;101005.84;;;8.68;76.69
23427;BME280;41148;45.420;10.952;2023-03-19T02:41:06;100982.94;;;8.62;76.95
23427;BME280;41148;45.420;10.952;2023-03-19T02:43:36;100987.25;;;8.68;77.20
23427;BME280;41148;45.420;10.952;2023-03-19T02:46:07;101003.22;;;8.66;77.99
23427;BME280;41148;45.420;10.952;2023-03-19T02:48:36;101006.09;;;8.52;78.55
23427;BME280;41148;45.420;10.952;2023-03-19T02:51:04;101009.47;;;8.64;78.56
23427;BME280;41148;45.420;10.952;2023-03-19T02:53:31;101010.31;;;8.66;78.32
23427;BME280;41148;45.420;10.952;2023-03-19T02:56:01;101015.78;;;8.55;79.56
23427;BME280;41148;45.420;10.952;2023-03-19T02:58:28;101000.78;;;8.52;79.62
23427;BME280;41148;45.420;10.952;2023-03-19T03:00:56;101011.28;;;8.62;79.53
23427;BME280;41148;45.420;10.952;2023-03-19T03:03:23;101011.22;;;8.65;79.64
23427;BME280;41148;45.420;10.952;2023-03-19T03:05:51;101014.81;;;8.62;79.89
23427;BME280;41148;45.420;10.952;2023-03-19T03:08:18;100998.94;;;8.57;79.73
23427;BME280;41148;45.420;10.952;2023-03-19T03:10:47;101011.38;;;8.55;80.11
23427;BME280;41148;45.420;10.952;2023-03-19T03:13:15;101017.50;;;8.60;80.07
23427;BME280;41148;45.420;10.952;2023-03-19T03:15:42;101006.91;;;8.57;79.99
23427;BME280;41148;45.420;10.952;2023-03-19T03:18:09;101008.91;;;8.42;80.74
23427;BME280;41148;45.420;10.952;2023-03-19T03:20:37;101014.09;;;8.51;80.92
23427;BME280;41148;45.420;10.952;2023-03-19T03:23:04;100992.22;;;8.32;81.68
23427;BME280;41148;45.420;10.952;2023-03-19T03:25:31;101010.03;;;8.22;81.99
23427;BME280;41148;45.420;10.952;2023-03-19T03:27:59;101004.72;;;8.22;82.25
23427;BME280;41148;45.420;10.952;2023-03-19T03:30:26;101021.38;;;8.33;81.79
23427;BME280;41148;45.420;10.952;2023-03-19T03:32:54;101017.81;;;8.38;82.02
23427;BME280;41148;45.420;10.952;2023-03-19T03:35:22;101023.75;;;8.55;80.97
23427;BME280;41148;45.420;10.952;2023-03-19T03:37:50;101007.91;;;8.50;81.30
23427;BME280;41148;45.420;10.952;2023-03-19T03:40:18;101016.63;;;8.60;80.67
23427;BME280;41148;45.420;10.952;2023-03-19T03:42:46;101019.19;;;8.65;80.44
23427;BME280;41148;45.420;10.952;2023-03-19T03:45:14;101019.31;;;8.55;80.64
23427;BME280;41148;45.420;10.952;2023-03-19T03:47:44;101013.97;;;8.60;80.79
23427;BME280;41148;45.420;10.952;2023-03-19T03:50:11;101024.53;;;8.63;80.08
23427;BME280;41148;45.420;10.952;2023-03-19T03:52:40;101009.56;;;8.57;80.13
23427;BME280;41148;45.420;10.952;2023-03-19T03:55:08;101016.50;;;8.69;79.82
23427;BME280;41148;45.420;10.952;2023-03-19T03:57:36;101014.72;;;8.67;79.93
23427;BME280;41148;45.420;10.952;2023-03-19T04:00:04;101019.25;;;8.62;79.69
23427;BME280;41148;45.420;10.952;2023-03-19T04:02:39;101012.97;;;8.66;79.52
23427;BME280;41148;45.420;10.952;2023-03-19T04:05:10;101021.78;;;8.71;79.75
23427;BME280;41148;45.420;10.952;2023-03-19T04:07:38;101027.88;;;8.76;79.42
23427;BME280;41148;45.420;10.952;2023-03-19T04:10:06;101042.97;;;8.74;79.73
23427;BME280;41148;45.420;10.952;2023-03-19T04:12:34;101036.94;;;8.63;80.16
23427;BME280;41148;45.420;10.952;2023-03-19T04:15:02;101038.03;;;8.48;80.93
23427;BME280;41148;45.420;10.952;2023-03-19T04:17:30;101027.25;;;8.58;79.80
23427;BME280;41148;45.420;10.952;2023-03-19T04:19:58;101036.66;;;8.82;78.95
23427;BME280;41148;45.420;10.952;2023-03-19T04:22:25;101037.69;;;8.72;79.45
23427;BME280;41148;45.420;10.952;2023-03-19T04:24:53;101027.19;;;8.63;79.83
23427;BME280;41148;45.420;10.952;2023-03-19T04:27:21;101049.00;;;8.85;79.19
23427;BME280;41148;45.420;10.952;2023-03-19T04:29:48;101054.44;;;8.76;79.30
23427;BME280;41148;45.420;10.952;2023-03-19T04:32:17;101051.75;;;8.77;80.12
23427;BME280;41148;45.420;10.952;2023-03-19T04:34:44;101057.97;;;8.76;79.87
23427;BME280;41148;45.420;10.952;2023-03-19T04:37:12;101065.19;;;8.70;79.68
23427;BME280;41148;45.420;10.952;2023-03-19T04:39:46;101061.50;;;8.78;79.53
23427;BME280;41148;45.420;10.952;2023-03-19T04:42:13;101076.69;;;8.67;79.60
23427;BME280;41148;45.420;10.952;2023-03-19T04:44:53;101069.59;;;8.68;79.30
23427;BME280;41148;45.420;10.952;2023-03-19T04:47:22;101082.84;;;8.72;79.45
23427;BME280;41148;45.420;10.952;2023-03-19T04:49:56;101087.19;;;8.76;78.99
23427;BME280;41148;45.420;10.952;2023-03-19T04:52:25;101076.53;;;8.81;78.46
23427;BME280;41148;45.420;10.952;2023-03-19T04:54:54;101084.69;;;8.69;79.22
23427;BME280;41148;45.420;10.952;2023-03-19T04:57:21;101088.31;;;8.62;79.84
23427;BME280;41148;45.420;10.952;2023-03-19T04:59:51;101078.56;;;8.62;79.50
23427;BME280;41148;45.420;10.952;2023-03-19T05:02:20;101085.56;;;8.69;79.51
23427;BME280;41148;45.420;10.952;2023-03-19T05:04:49;101080.31;;;8.63;79.97
23427;BME280;41148;45.420;10.952;2023-03-19T05:07:16;101104.22;;;8.63;80.39
23427;BME280;41148;45.420;10.952;2023-03-19T05:09:44;101102.38;;;8.67;80.38
23427;BME280;41148;45.420;10.952;2023-03-19T05:12:13;101104.00;;;8.77;80.04
23427;BME280;41148;45.420;10.952;2023-03-19T05:14:46;101103.19;;;8.73;80.17
23427;BME280;41148;45.420;10.952;2023-03-19T05:17:22;101083.03;;;8.60;81.11
23427;BME280;41148;45.420;10.952;2023-03-19T05:20:04;101094.41;;;8.67;81.00
23427;BME280;41148;45.420;10.952;2023-03-19T05:22:33;101082.25;;;8.52;81.31
23427;BME280;41148;45.420;10.952;2023-03-19T05:25:01;101105.94;;;8.66;81.74
23427;BME280;41148;45.420;10.952;2023-03-19T05:27:30;101099.84;;;8.57;82.00
23427;BME280;41148;45.420;10.952;2023-03-19T05:30:03;101115.75;;;8.62;82.17
23427;BME280;41148;45.420;10.952;2023-03-19T05:32:52;101104.38;;;8.51;82.10
23427;BME280;41148;45.420;10.952;2023-03-19T05:35:31;101112.31;;;8.52;82.19
23427;BME280;41148;45.420;10.952;2023-03-19T05:38:00;101104.50;;;8.42;82.45
23427;BME280;41148;45.420;10.952;2023-03-19T05:40:28;101110.78;;;8.33;82.76
23427;BME280;41148;45.420;10.952;2023-03-19T05:42:58;101121.34;;;8.41;82.72
23427;BME280;41148;45.420;10.952;2023-03-19T05:45:28;101122.16;;;8.44;82.68
23427;BME280;41148;45.420;10.952;2023-03-19T05:47:59;101125.75;;;8.42;82.09
23427;BME280;41148;45.420;10.952;2023-03-19T05:50:28;101127.44;;;8.46;82.32
23427;BME280;41148;45.420;10.952;2023-03-19T05:53:09;101106.34;;;8.32;82.91
23427;BME280;41148;45.420;10.952;2023-03-19T05:55:39;101115.19;;;8.32;83.32
23427;BME280;41148;45.420;10.952;2023-03-19T05:58:09;101123.78;;;8.56;82.04
23427;BME280;41148;45.420;10.952;2023-03-19T06:00:37;101118.59;;;8.47;82.21
23427;BME280;41148;45.420;10.952;2023-03-19T06:03:05;101122.97;;;8.51;82.34
23427;BME280;41148;45.420;10.952;2023-03-19T06:05:50;101132.72;;;8.49;82.80
23427;BME280;41148;45.420;10.952;2023-03-19T06:08:32;101116.06;;;8.33;83.04
23427;BME280;41148;45.420;10.952;2023-03-19T06:11:23;101134.53;;;8.45;83.45
23427;BME280;41148;45.420;10.952;2023-03-19T06:14:06;101127.34;;;8.55;82.85
23427;BME280;41148;45.420;10.952;2023-03-19T06:16:37;101132.66;;;8.53;82.40
23427;BME280;41148;45.420;10.952;2023-03-19T06:19:05;101131.91;;;8.44;82.36
23427;BME280;41148;45.420;10.952;2023-03-19T06:21:32;101138.94;;;8.49;82.53
23427;BME280;41148;45.420;10.952;2023-03-19T06:24:02;101141.47;;;8.57;81.76
23427;BME280;41148;45.420;10.952;2023-03-19T06:26:34;101143.13;;;8.66;81.30
23427;BME280;41148;45.420;10.952;2023-03-19T06:29:07;101154.56;;;8.72;80.83
23427;BME280;41148;45.420;10.952;2023-03-19T06:31:36;101160.94;;;8.59;81.25
23427;BME280;41148;45.420;10.952;2023-03-19T06:34:30;101156.47;;;8.63;81.21
23427;BME280;41148;45.420;10.952;2023-03-19T06:36:58;101151.13;;;8.64;80.71
23427;BME280;41148;45.420;10.952;2023-03-19T06:39:25;101153.47;;;8.88;79.90
23427;BME280;41148;45.420;10.952;2023-03-19T06:41:53;101156.06;;;8.93;79.60
23427;BME280;41148;45.420;10.952;2023-03-19T06:44:24;101146.41;;;8.86;79.68
23427;BME280;41148;45.420;10.952;2023-03-19T06:46:52;101164.75;;;9.04;78.88
23427;BME280;41148;45.420;10.952;2023-03-19T06:49:21;101169.09;;;9.11;79.61
23427;BME280;41148;45.420;10.952;2023-03-19T06:51:49;101175.19;;;9.20;79.22
23427;BME280;41148;45.420;10.952;2023-03-19T06:54:16;101160.03;;;9.25;79.34
23427;BME280;41148;45.420;10.952;2023-03-19T06:56:44;101174.91;;;9.38;79.23
23427;BME280;41148;45.420;10.952;2023-03-19T06:59:12;101169.88;;;9.20;80.39
23427;BME280;41148;45.420;10.952;2023-03-19T07:01:40;101174.22;;;9.24;80.23
23427;BME280;41148;45.420;10.952;2023-03-19T07:04:08;101178.63;;;9.25;80.28
23427;BME280;41148;45.420;10.952;2023-03-19T07:06:36;101177.63;;;9.33;79.86
23427;BME280;41148;45.420;10.952;2023-03-19T07:09:04;101167.84;;;9.37;79.89
23427;BME280;41148;45.420;10.952;2023-03-19T07:11:31;101168.63;;;9.42;79.56
23427;BME280;41148;45.420;10.952;2023-03-19T07:14:02;101169.31;;;9.56;79.52
23427;BME280;41148;45.420;10.952;2023-03-19T07:16:30;101169.19;;;9.62;79.24
23427;BME280;41148;45.420;10.952;2023-03-19T07:18:57;101161.06;;;9.71;78.08
23427;BME280;41148;45.420;10.952;2023-03-19T07:21:25;101159.94;;;9.83;77.43
23427;BME280;41148;45.420;10.952;2023-03-19T07:23:52;101156.59;;;10.21;75.82
23427;BME280;41148;45.420;10.952;2023-03-19T07:26:20;101151.97;;;10.32;75.42
23427;BME280;41148;45.420;10.952;2023-03-19T07:28:51;101169.78;;;10.30;75.20
23427;BME280;41148;45.420;10.952;2023-03-19T07:31:21;101169.63;;;10.38;74.79
23427;BME280;41148;45.420;10.952;2023-03-19T07:33:48;101160.13;;;10.25;75.49
23427;BME280;41148;45.420;10.952;2023-03-19T07:36:15;101177.03;;;10.24;75.49
23427;BME280;41148;45.420;10.952;2023-03-19T07:38:43;101195.69;;;10.19;76.29
23427;BME280;41148;45.420;10.952;2023-03-19T07:41:10;101181.66;;;10.10;77.12
23427;BME280;41148;45.420;10.952;2023-03-19T07:43:38;101192.34;;;10.08;75.95
23427;BME280;41148;45.420;10.952;2023-03-19T07:46:05;101198.09;;;10.36;77.03
23427;BME280;41148;45.420;10.952;2023-03-19T07:48:34;101195.31;;;10.42;75.90
23427;BME280;41148;45.420;10.952;2023-03-19T07:51:02;101182.03;;;10.39;75.98
23427;BME280;41148;45.420;10.952;2023-03-19T07:53:29;101194.16;;;10.55;75.72
23427;BME280;41148;45.420;10.952;2023-03-19T07:55:57;101197.22;;;10.79;75.08
23427;BME280;41148;45.420;10.952;2023-03-19T07:58:25;101189.59;;;10.62;75.67
23427;BME280;41148;45.420;10.952;2023-03-19T08:00:53;101204.09;;;10.91;75.04
23427;BME280;41148;45.420;10.952;2023-03-19T08:03:20;101201.41;;;10.92;75.73
23427;BME280;41148;45.420;10.952;2023-03-19T08:05:48;101181.19;;;10.80;76.53
23427;BME280;41148;45.420;10.952;2023-03-19T08:08:16;101182.72;;;10.94;76.97
23427;BME280;41148;45.420;10.952;2023-03-19T08:10:44;101178.13;;;10.99;77.78
23427;BME280;41148;45.420;10.952;2023-03-19T08:13:11;101191.34;;;11.05;77.81
23427;BME280;41148;45.420;10.952;2023-03-19T08:15:40;101192.22;;;11.05;78.21
23427;BME280;41148;45.420;10.952;2023-03-19T08:18:08;101187.88;;;11.00;78.36
23427;BME280;41148;45.420;10.952;2023-03-19T08:20:35;101193.44;;;10.91;79.35
23427;BME280;41148;45.420;10.952;2023-03-19T08:23:03;101186.81;;;11.10;78.65
23427;BME280;41148;45.420;10.952;2023-03-19T08:25:30;101193.69;;;11.18;78.66
23427;BME280;41148;45.420;10.952;2023-03-19T08:27:59;101191.78;;;11.25;77.32
23427;BME280;41148;45.420;10.952;2023-03-19T08:30:27;101195.22;;;11.30;76.60
23427;BME280;41148;45.420;10.952;2023-03-19T08:32:54;101196.56;;;11.09;75.21
23427;BME280;41148;45.420;10.952;2023-03-19T08:35:23;101199.69;;;11.28;74.20
23427;BME280;41148;45.420;10.952;2023-03-19T08:37:53;101196.22;;;11.25;74.12
23427;BME280;41148;45.420;10.952;2023-03-19T08:40:22;101204.06;;;11.32;74.00
23427;BME280;41148;45.420;10.952;2023-03-19T08:42:49;101205.69;;;11.38;73.75
23427;BME280;41148;45.420;10.952;2023-03-19T08:45:17;101201.84;;;11.51;73.65
23427;BME280;41148;45.420;10.952;2023-03-19T08:47:45;101201.81;;;11.53;73.47
23427;BME280;41148;45.420;10.952;2023-03-19T08:50:12;101217.53;;;11.65;72.83
23427;BME280;41148;45.420;10.952;2023-03-19T08:52:40;101207.00;;;11.59;73.13
23427;BME280;41148;45.420;10.952;2023-03-19T08:55:08;101213.66;;;11.76;72.24
23427;BME280;41148;45.420;10.952;2023-03-19T08:57:36;101215.41;;;11.81;71.19
23427;BME280;41148;45.420;10.952;2023-03-19T09:00:04;101206.34;;;11.86;70.81
23427;BME280;41148;45.420;10.952;2023-03-19T09:02:32;101209.59;;;11.99;69.82
23427;BME280;41148;45.420;10.952;2023-03-19T09:04:59;101212.97;;;12.06;67.82
23427;BME280;41148;45.420;10.952;2023-03-19T09:07:26;101208.44;;;12.09;67.96
23427;BME280;41148;45.420;10.952;2023-03-19T09:09:54;101201.25;;;12.45;65.27
23427;BME280;41148;45.420;10.952;2023-03-19T09:12:21;101213.84;;;12.40;66.04
23427;BME280;41148;45.420;10.952;2023-03-19T09:14:49;101214.00;;;12.67;63.72
23427;BME280;41148;45.420;10.952;2023-03-19T09:17:16;101225.94;;;12.53;63.93
23427;BME280;41148;45.420;10.952;2023-03-19T09:19:44;101218.31;;;12.40;65.36
23427;BME280;41148;45.420;10.952;2023-03-19T09:22:11;101218.59;;;12.61;65.34
23427;BME280;41148;45.420;10.952;2023-03-19T09:24:39;101221.91;;;12.39;66.26
23427;BME280;41148;45.420;10.952;2023-03-19T09:27:07;101225.78;;;12.59;66.45
23427;BME280;41148;45.420;10.952;2023-03-19T09:29:34;101219.63;;;12.57;66.43
23427;BME280;41148;45.420;10.952;2023-03-19T09:32:02;101225.19;;;12.16;67.20
23427;BME280;41148;45.420;10.952;2023-03-19T09:34:29;101228.63;;;12.21;68.03
23427;BME280;41148;45.420;10.952;2023-03-19T09:36:57;101231.13;;;12.27;68.04
23427;BME280;41148;45.420;10.952;2023-03-19T09:39:25;101223.50;;;12.46;65.65
23427;BME280;41148;45.420;10.952;2023-03-19T09:44:43;101220.44;;;12.59;65.38
23427;BME280;41148;45.420;10.952;2023-03-19T09:47:32;101233.66;;;12.66;63.42
23427;BME280;41148;45.420;10.952;2023-03-19T09:57:52;101229.72;;;12.46;65.79
23427;BME280;41148;45.420;10.952;2023-03-19T10:00:27;101224.53;;;12.40;66.42
23427;BME280;41148;45.420;10.952;2023-03-19T10:03:09;101224.50;;;12.42;66.65
23427;BME280;41148;45.420;10.952;2023-03-19T10:08:39;101228.81;;;12.47;64.53
23427;BME280;41148;45.420;10.952;2023-03-19T10:17:03;101220.03;;;12.75;66.61
23427;BME280;41148;45.420;10.952;2023-03-19T10:19:44;101213.97;;;12.68;66.14
23427;BME280;41148;45.420;10.952;2023-03-19T10:22:34;101224.53;;;13.04;63.58
23427;BME280;41148;45.420;10.952;2023-03-19T10:25:09;101220.44;;;13.22;62.85
23427;BME280;41148;45.420;10.952;2023-03-19T10:27:39;101219.84;;;13.41;60.23
23427;BME280;41148;45.420;10.952;2023-03-19T10:30:24;101216.59;;;13.32;60.26
23427;BME280;41148;45.420;10.952;2023-03-19T10:33:02;101213.34;;;13.21;59.22
23427;BME280;41148;45.420;10.952;2023-03-19T10:35:42;101214.72;;;13.34;58.98
23427;BME280;41148;45.420;10.952;2023-03-19T10:43:38;101200.31;;;13.66;56.74
23427;BME280;41148;45.420;10.952;2023-03-19T10:46:11;101201.63;;;13.81;56.20
23427;BME280;41148;45.420;10.952;2023-03-19T10:48:44;101188.81;;;13.89;55.14
23427;BME280;41148;45.420;10.952;2023-03-19T10:51:14;101199.13;;;13.74;56.85
23427;BME280;41148;45.420;10.952;2023-03-19T10:53:42;101201.75;;;13.76;58.25
23427;BME280;41148;45.420;10.952;2023-03-19T10:59:19;101187.25;;;13.83;57.10
23427;BME280;41148;45.420;10.952;2023-03-19T11:01:47;101180.91;;;13.86;57.58
23427;BME280;41148;45.420;10.952;2023-03-19T11:04:18;101184.97;;;13.97;56.75
23427;BME280;41148;45.420;10.952;2023-03-19T11:06:54;101182.38;;;14.21;54.96
23427;BME280;41148;45.420;10.952;2023-03-19T11:09:33;101175.69;;;14.08;55.31
23427;BME280;41148;45.420;10.952;2023-03-19T11:14:46;101166.88;;;14.04;55.14
23427;BME280;41148;45.420;10.952;2023-03-19T11:20:32;101171.41;;;14.28;53.85
23427;BME280;41148;45.420;10.952;2023-03-19T11:23:02;101166.72;;;14.09;53.09
23427;BME280;41148;45.420;10.952;2023-03-19T11:25:37;101161.66;;;14.01;53.99
23427;BME280;41148;45.420;10.952;2023-03-19T11:28:17;101161.28;;;14.12;53.51
23427;BME280;41148;45.420;10.952;2023-03-19T11:31:03;101164.09;;;14.07;53.17
23427;BME280;41148;45.420;10.952;2023-03-19T11:36:48;101138.56;;;14.22;52.33
23427;BME280;41148;45.420;10.952;2023-03-19T11:39:27;101137.84;;;14.42;52.18
23427;BME280;41148;45.420;10.952;2023-03-19T11:42:08;101142.56;;;14.35;52.14
23427;BME280;41148;45.420;10.952;2023-03-19T11:44:56;101137.97;;;14.39;51.71
23427;BME280;41148;45.420;10.952;2023-03-19T11:53:37;101127.09;;;14.67;51.53
23427;BME280;41148;45.420;10.952;2023-03-19T11:59:11;101109.75;;;14.28;52.29
23427;BME280;41148;45.420;10.952;2023-03-19T12:12:44;101088.00;;;14.61;51.04
23427;BME280;41148;45.420;10.952;2023-03-19T12:23:20;101090.81;;;14.58;51.45
23427;BME280;41148;45.420;10.952;2023-03-19T12:28:34;101089.63;;;14.65;51.09
23427;BME280;41148;45.420;10.952;2023-03-19T12:34:25;101089.41;;;14.71;50.37
23427;BME280;41148;45.420;10.952;2023-03-19T12:37:35;101091.56;;;14.62;50.93
23427;BME280;41148;45.420;10.952;2023-03-19T12:43:35;101079.88;;;14.86;50.26
23427;BME280;41148;45.420;10.952;2023-03-19T12:48:43;101081.22;;;14.74;51.03
23427;BME280;41148;45.420;10.952;2023-03-19T12:51:19;101083.84;;;14.76;51.89
23427;BME280;41148;45.420;10.952;2023-03-19T12:53:55;101065.66;;;14.84;52.46
23427;BME280;41148;45.420;10.952;2023-03-19T13:01:51;101054.84;;;14.85;50.48
23427;BME280;41148;45.420;10.952;2023-03-19T13:04:23;101062.97;;;14.84;50.64
23427;BME280;41148;45.420;10.952;2023-03-19T13:09:53;101054.19;;;15.02;50.95
23427;BME280;41148;45.420;10.952;2023-03-19T13:12:26;101054.94;;;15.28;50.60
23427;BME280;41148;45.420;10.952;2023-03-19T13:15:06;101036.88;;;15.31;50.29
23427;BME280;41148;45.420;10.952;2023-03-19T13:23:33;101043.97;;;15.32;50.39
23427;BME280;41148;45.420;10.952;2023-03-19T13:26:04;101038.44;;;15.37;49.29
23427;BME280;41148;45.420;10.952;2023-03-19T13:28:36;101039.09;;;15.42;48.32
23427;BME280;41148;45.420;10.952;2023-03-19T13:31:07;101034.06;;;15.34;49.26
23427;BME280;41148;45.420;10.952;2023-03-19T13:33:35;101037.91;;;15.49;49.04
23427;BME280;41148;45.420;10.952;2023-03-19T13:36:06;101036.50;;;15.40;49.05
23427;BME280;41148;45.420;10.952;2023-03-19T13:38:40;101036.06;;;15.29;49.87
23427;BME280;41148;45.420;10.952;2023-03-19T13:44:17;101032.53;;;15.49;49.14
23427;BME280;41148;45.420;10.952;2023-03-19T13:46:47;101032.06;;;15.39;48.08
23427;BME280;41148;45.420;10.952;2023-03-19T13:51:48;101021.25;;;15.41;48.26
23427;BME280;41148;45.420;10.952;2023-03-19T13:54:18;101028.69;;;15.34;47.58
23427;BME280;41148;45.420;10.952;2023-03-19T13:59:32;101018.03;;;15.53;47.52
23427;BME280;41148;45.420;10.952;2023-03-19T14:02:01;101010.03;;;15.52;47.40
23427;BME280;41148;45.420;10.952;2023-03-19T14:04:35;101001.88;;;15.55;46.96
23427;BME280;41148;45.420;10.952;2023-03-19T14:09:43;101006.31;;;15.56;47.95
23427;BME280;41148;45.420;10.952;2023-03-19T14:19:51;101012.19;;;15.65;48.47
23427;BME280;41148;45.420;10.952;2023-03-19T14:22:52;101002.13;;;15.49;49.16
23427;BME280;41148;45.420;10.952;2023-03-19T14:25:21;100996.84;;;15.47;49.67
23427;BME280;41148;45.420;10.952;2023-03-19T14:27:55;101007.00;;;15.61;49.99
23427;BME280;41148;45.420;10.952;2023-03-19T14:30:44;100996.50;;;15.55;49.57
23427;BME280;41148;45.420;10.952;2023-03-19T14:35:57;100990.13;;;15.57;48.95
23427;BME280;41148;45.420;10.952;2023-03-19T14:38:35;100995.75;;;15.51;49.19
23427;BME280;41148;45.420;10.952;2023-03-19T14:41:05;100990.19;;;15.56;47.93
23427;BME280;41148;45.420;10.952;2023-03-19T14:44:06;100992.19;;;15.51;48.03
23427;BME280;41148;45.420;10.952;2023-03-19T14:47:18;100995.56;;;15.56;48.55
23427;BME280;41148;45.420;10.952;2023-03-19T14:52:43;100994.88;;;15.51;48.34
23427;BME280;41148;45.420;10.952;2023-03-19T14:55:14;100997.56;;;15.51;48.68
23427;BME280;41148;45.420;10.952;2023-03-19T14:57:43;100988.09;;;15.64;49.08
23427;BME280;41148;45.420;10.952;2023-03-19T15:00:18;100990.31;;;15.53;49.53
23427;BME280;41148;45.420;10.952;2023-03-19T15:02:50;100987.69;;;15.51;49.41
23427;BME280;41148;45.420;10.952;2023-03-19T15:05:27;100996.75;;;15.49;49.55